sensor_id;sensor_type;location;lat;lon;timestamp;temperature;humidity
9808;DHT22;4943;52.550;13.462;2023-04-01T00:00:01;13.40;99.90
9808;DHT22;4943;52.550;13.462;2023-04-01T00:02:29;13.40;99.90
9808;DHT22;4943;52.550;13.462;2023-04-01T00:04:58;13.40;99.90
9808;DHT22;4943;52.550;13.462;2023-04-01T00:07:26;13.40;99.90
9808;DHT22;4943;52.550;13.462;2023-04-01T00:09:56;13.50;99.90
9808;DHT22;4943;52.550;13.462;2023-04-01T00:12:24;13.50;99.90
9808;DHT22;4943;52.550;13.462;2023-04-01T00:14:52;13.50;99.90
9808;DHT22;4943;52.550;13.462;2023-04-01T00:17:21;13.50;99.90
9808;DHT22;4943;52.550;13.462;2023-04-01T00:19:49;13.40;99.90
9808;DHT22;4943;52.550;13.462;2023-04-01T00:22:19;13.40;99.90
9808;DHT22;4943;52.550;13.462;2023-04-01T00:24:47;13.40;99.90
9808;DHT22;4943;52.550;13.462;2023-04-01T00:27:15;13.40;99.90
9808;DHT22;4943;52.550;13.462;2023-04-01T00:29:43;13.40;99.90
9808;DHT22;4943;52.550;13.462;2023-04-01T00:32:12;13.30;99.90
9808;DHT22;4943;52.550;13.462;2023-04-01T00:34:41;13.30;99.90
9808;DHT22;4943;52.550;13.462;2023-04-01T00:37:11;13.30;99.90
9808;DHT22;4943;52.550;13.462;2023-04-01T00:39:40;13.30;99.90
9808;DHT22;4943;52.550;13.462;2023-04-01T00:42:09;13.40;99.90
9808;DHT22;4943;52.550;13.462;2023-04-01T00:44:38;13.40;99.90
9808;DHT22;4943;52.550;13.462;2023-04-01T00:47:07;13.40;99.90
9808;DHT22;4943;52.550;13.462;2023-04-01T00:49:36;13.40;99.90
9808;DHT22;4943;52.550;13.462;2023-04-01T00:52:07;13.40;99.90
9808;DHT22;4943;52.550;13.462;2023-04-01T00:54:36;13.30;99.90
9808;DHT22;4943;52.550;13.462;2023-04-01T00:57:09;13.30;99.90
9808;DHT22;4943;52.550;13.462;2023-04-01T00:59:42;13.30;99.90
9808;DHT22;4943;52.550;13.462;2023-04-01T01:02:12;13.30;99.90
9808;DHT22;4943;52.550;13.462;2023-04-01T01:04:41;13.30;99.90
9808;DHT22;4943;52.550;13.462;2023-04-01T01:07:18;13.30;99.90
9808;DHT22;4943;52.550;13.462;2023-04-01T01:09:55;13.30;99.90
9808;DHT22;4943;52.550;13.462;2023-04-01T01:12:36;13.30;99.90
9808;DHT22;4943;52.550;13.462;2023-04-01T01:15:10;13.30;99.90
9808;DHT22;4943;52.550;13.462;2023-04-01T01:17:48;13.30;99.90
9808;DHT22;4943;52.550;13.462;2023-04-01T01:20:48;13.30;99.90
9808;DHT22;4943;52.550;13.462;2023-04-01T01:26:52;13.30;99.90
9808;DHT22;4943;52.550;13.462;2023-04-01T01:32:25;13.20;99.90
9808;DHT22;4943;52.550;13.462;2023-04-01T01:35:06;13.20;99.90
9808;DHT22;4943;52.550;13.462;2023-04-01T01:37:36;13.20;99.90
9808;DHT22;4943;52.550;13.462;2023-04-01T01:40:08;13.20;99.90
9808;DHT22;4943;52.550;13.462;2023-04-01T01:42:38;13.20;99.90
9808;DHT22;4943;52.550;13.462;2023-04-01T01:45:09;13.20;99.90
9808;DHT22;4943;52.550;13.462;2023-04-01T01:47:37;13.20;99.90
9808;DHT22;4943;52.550;13.462;2023-04-01T01:50:09;13.30;99.90
9808;DHT22;4943;52.550;13.462;2023-04-01T01:52:38;13.30;99.90
9808;DHT22;4943;52.550;13.462;2023-04-01T01:55:26;13.30;99.90
9808;DHT22;4943;52.550;13.462;2023-04-01T01:57:55;13.30;99.90
9808;DHT22;4943;52.550;13.462;2023-04-01T02:00:23;13.30;99.90
9808;DHT22;4943;52.550;13.462;2023-04-01T02:02:52;13.30;99.90
9808;DHT22;4943;52.550;13.462;2023-04-01T02:05:24;13.30;99.90
9808;DHT22;4943;52.550;13.462;2023-04-01T02:07:59;13.30;99.90
9808;DHT22;4943;52.550;13.462;2023-04-01T02:10:31;13.30;99.90
9808;DHT22;4943;52.550;13.462;2023-04-01T02:13:07;13.30;99.90
9808;DHT22;4943;52.550;13.462;2023-04-01T02:15:41;13.30;99.90
9808;DHT22;4943;52.550;13.462;2023-04-01T02:18:11;13.30;99.90
9808;DHT22;4943;52.550;13.462;2023-04-01T02:20:43;13.30;99.90
9808;DHT22;4943;52.550;13.462;2023-04-01T02:23:12;13.30;99.90
9808;DHT22;4943;52.550;13.462;2023-04-01T02:25:43;13.30;99.90
9808;DHT22;4943;52.550;13.462;2023-04-01T02:28:13;13.30;99.90
9808;DHT22;4943;52.550;13.462;2023-04-01T02:30:44;13.30;99.90
9808;DHT22;4943;52.550;13.462;2023-04-01T02:33:12;13.30;99.90
9808;DHT22;4943;52.550;13.462;2023-04-01T02:35:42;13.30;99.90
9808;DHT22;4943;52.550;13.462;2023-04-01T02:38:10;13.20;99.90
9808;DHT22;4943;52.550;13.462;2023-04-01T02:40:45;13.20;99.90
9808;DHT22;4943;52.550;13.462;2023-04-01T02:43:14;13.20;99.90
9808;DHT22;4943;52.550;13.462;2023-04-01T02:45:42;13.20;99.90
9808;DHT22;4943;52.550;13.462;2023-04-01T02:48:10;13.20;99.90
9808;DHT22;4943;52.550;13.462;2023-04-01T02:50:39;13.20;99.90
9808;DHT22;4943;52.550;13.462;2023-04-01T02:53:09;13.20;99.90
9808;DHT22;4943;52.550;13.462;2023-04-01T02:55:37;13.20;99.90
9808;DHT22;4943;52.550;13.462;2023-04-01T02:58:05;13.10;99.90
9808;DHT22;4943;52.550;13.462;2023-04-01T03:00:33;13.10;99.90
9808;DHT22;4943;52.550;13.462;2023-04-01T03:03:01;13.10;99.90
9808;DHT22;4943;52.550;13.462;2023-04-01T03:05:29;13.10;99.90
9808;DHT22;4943;52.550;13.462;2023-04-01T03:07:58;13.10;99.90
9808;DHT22;4943;52.550;13.462;2023-04-01T03:10:27;13.10;99.90
9808;DHT22;4943;52.550;13.462;2023-04-01T03:12:55;13.10;99.90
9808;DHT22;4943;52.550;13.462;2023-04-01T03:15:23;13.20;99.90
9808;DHT22;4943;52.550;13.462;2023-04-01T03:17:51;13.20;99.90
9808;DHT22;4943;52.550;13.462;2023-04-01T03:20:19;13.20;99.90
9808;DHT22;4943;52.550;13.462;2023-04-01T03:22:47;13.20;99.90
9808;DHT22;4943;52.550;13.462;2023-04-01T03:25:15;13.20;99.90
9808;DHT22;4943;52.550;13.462;2023-04-01T03:27:45;13.20;99.90
9808;DHT22;4943;52.550;13.462;2023-04-01T03:30:13;13.20;99.90
9808;DHT22;4943;52.550;13.462;2023-04-01T03:32:41;13.20;99.90
9808;DHT22;4943;52.550;13.462;2023-04-01T03:35:09;13.20;99.90
9808;DHT22;4943;52.550;13.462;2023-04-01T03:37:37;13.20;99.90
9808;DHT22;4943;52.550;13.462;2023-04-01T03:40:06;13.20;99.90
9808;DHT22;4943;52.550;13.462;2023-04-01T03:42:34;13.20;99.90
9808;DHT22;4943;52.550;13.462;2023-04-01T03:45:05;13.20;99.90
9808;DHT22;4943;52.550;13.462;2023-04-01T03:47:33;13.20;99.90
9808;DHT22;4943;52.550;13.462;2023-04-01T03:50:01;13.10;99.90
9808;DHT22;4943;52.550;13.462;2023-04-01T03:52:29;13.10;99.90
9808;DHT22;4943;52.550;13.462;2023-04-01T03:54:57;13.10;99.90
9808;DHT22;4943;52.550;13.462;2023-04-01T03:57:25;13.20;99.90
9808;DHT22;4943;52.550;13.462;2023-04-01T03:59:53;13.20;99.90
9808;DHT22;4943;52.550;13.462;2023-04-01T04:02:23;13.20;99.90
9808;DHT22;4943;52.550;13.462;2023-04-01T04:04:51;13.20;99.90
9808;DHT22;4943;52.550;13.462;2023-04-01T04:07:19;13.20;99.90
9808;DHT22;4943;52.550;13.462;2023-04-01T04:09:47;13.20;99.90
9808;DHT22;4943;52.550;13.462;2023-04-01T04:12:15;13.20;99.90
9808;DHT22;4943;52.550;13.462;2023-04-01T04:14:43;13.20;99.90
9808;DHT22;4943;52.550;13.462;2023-04-01T04:17:11;13.20;99.90
9808;DHT22;4943;52.550;13.462;2023-04-01T04:19:44;13.20;99.90
9808;DHT22;4943;52.550;13.462;2023-04-01T04:22:12;13.20;99.90
9808;DHT22;4943;52.550;13.462;2023-04-01T04:24:40;13.20;99.90
9808;DHT22;4943;52.550;13.462;2023-04-01T04:27:11;13.20;99.90
9808;DHT22;4943;52.550;13.462;2023-04-01T04:29:39;13.30;99.90
9808;DHT22;4943;52.550;13.462;2023-04-01T04:32:07;13.30;99.90
9808;DHT22;4943;52.550;13.462;2023-04-01T04:34:35;13.30;99.90
9808;DHT22;4943;52.550;13.462;2023-04-01T04:37:04;13.30;99.90
9808;DHT22;4943;52.550;13.462;2023-04-01T04:39:32;13.20;99.90
9808;DHT22;4943;52.550;13.462;2023-04-01T04:42:00;13.20;99.90
9808;DHT22;4943;52.550;13.462;2023-04-01T04:44:28;13.20;99.90
9808;DHT22;4943;52.550;13.462;2023-04-01T04:46:56;13.20;99.90
9808;DHT22;4943;52.550;13.462;2023-04-01T04:49:25;13.30;99.90
9808;DHT22;4943;52.550;13.462;2023-04-01T04:51:52;13.30;99.90
9808;DHT22;4943;52.550;13.462;2023-04-01T04:54:22;13.30;99.90
9808;DHT22;4943;52.550;13.462;2023-04-01T04:56:51;13.30;99.90
9808;DHT22;4943;52.550;13.462;2023-04-01T04:59:19;13.20;99.90
9808;DHT22;4943;52.550;13.462;2023-04-01T05:01:47;13.20;99.90
9808;DHT22;4943;52.550;13.462;2023-04-01T05:04:15;13.20;99.90
9808;DHT22;4943;52.550;13.462;2023-04-01T05:06:44;13.20;99.90
9808;DHT22;4943;52.550;13.462;2023-04-01T05:09:12;13.20;99.90
9808;DHT22;4943;52.550;13.462;2023-04-01T05:11:42;13.20;99.90
9808;DHT22;4943;52.550;13.462;2023-04-01T05:14:13;13.20;99.90
9808;DHT22;4943;52.550;13.462;2023-04-01T05:16:41;13.30;99.90
9808;DHT22;4943;52.550;13.462;2023-04-01T05:19:09;13.30;99.90
9808;DHT22;4943;52.550;13.462;2023-04-01T05:21:37;13.30;99.90
9808;DHT22;4943;52.550;13.462;2023-04-01T05:24:08;13.30;99.90
9808;DHT22;4943;52.550;13.462;2023-04-01T05:26:36;13.20;99.90
9808;DHT22;4943;52.550;13.462;2023-04-01T05:29:06;13.30;99.90
9808;DHT22;4943;52.550;13.462;2023-04-01T05:31:34;13.30;99.90
9808;DHT22;4943;52.550;13.462;2023-04-01T05:34:02;13.20;99.90
9808;DHT22;4943;52.550;13.462;2023-04-01T05:36:30;13.20;99.90
9808;DHT22;4943;52.550;13.462;2023-04-01T05:38:58;13.20;99.90
9808;DHT22;4943;52.550;13.462;2023-04-01T05:41:26;13.20;99.90
9808;DHT22;4943;52.550;13.462;2023-04-01T05:43:54;13.20;99.90
9808;DHT22;4943;52.550;13.462;2023-04-01T05:46:24;13.20;99.90
9808;DHT22;4943;52.550;13.462;2023-04-01T05:48:52;13.20;99.90
9808;DHT22;4943;52.550;13.462;2023-04-01T05:51:20;13.20;99.90
9808;DHT22;4943;52.550;13.462;2023-04-01T05:53:48;13.20;99.90
9808;DHT22;4943;52.550;13.462;2023-04-01T05:56:16;13.20;99.90
9808;DHT22;4943;52.550;13.462;2023-04-01T05:58:47;13.20;99.90
9808;DHT22;4943;52.550;13.462;2023-04-01T06:01:18;13.20;99.90
9808;DHT22;4943;52.550;13.462;2023-04-01T06:03:47;13.20;99.90
9808;DHT22;4943;52.550;13.462;2023-04-01T06:06:19;13.30;99.90
9808;DHT22;4943;52.550;13.462;2023-04-01T06:08:49;13.20;99.90
9808;DHT22;4943;52.550;13.462;2023-04-01T06:11:26;13.30;99.90
9808;DHT22;4943;52.550;13.462;2023-04-01T06:14:12;13.30;99.90
9808;DHT22;4943;52.550;13.462;2023-04-01T06:16:57;13.30;99.90
9808;DHT22;4943;52.550;13.462;2023-04-01T06:19:36;13.30;99.90
9808;DHT22;4943;52.550;13.462;2023-04-01T06:22:37;13.30;99.90
9808;DHT22;4943;52.550;13.462;2023-04-01T06:25:24;13.40;99.90
9808;DHT22;4943;52.550;13.462;2023-04-01T06:28:20;13.30;99.90
9808;DHT22;4943;52.550;13.462;2023-04-01T06:30:57;13.40;99.90
9808;DHT22;4943;52.550;13.462;2023-04-01T06:33:39;13.40;99.90
9808;DHT22;4943;52.550;13.462;2023-04-01T06:36:25;13.30;99.90
9808;DHT22;4943;52.550;13.462;2023-04-01T06:39:16;13.30;99.90
9808;DHT22;4943;52.550;13.462;2023-04-01T06:42:06;13.30;99.90
9808;DHT22;4943;52.550;13.462;2023-04-01T06:44:47;13.40;99.90
9808;DHT22;4943;52.550;13.462;2023-04-01T06:47:28;13.40;99.90
9808;DHT22;4943;52.550;13.462;2023-04-01T06:50:09;13.40;99.90
9808;DHT22;4943;52.550;13.462;2023-04-01T06:52:47;13.30;99.90
9808;DHT22;4943;52.550;13.462;2023-04-01T06:55:26;13.30;99.90
9808;DHT22;4943;52.550;13.462;2023-04-01T06:57:57;13.40;99.90
9808;DHT22;4943;52.550;13.462;2023-04-01T07:00:30;13.40;99.90
9808;DHT22;4943;52.550;13.462;2023-04-01T07:03:05;13.40;99.90
9808;DHT22;4943;52.550;13.462;2023-04-01T07:05:35;13.50;99.90
9808;DHT22;4943;52.550;13.462;2023-04-01T07:08:09;13.40;99.90
9808;DHT22;4943;52.550;13.462;2023-04-01T07:10:43;13.50;99.90
9808;DHT22;4943;52.550;13.462;2023-04-01T07:13:17;13.50;99.90
9808;DHT22;4943;52.550;13.462;2023-04-01T07:15:55;13.40;99.90
9808;DHT22;4943;52.550;13.462;2023-04-01T07:18:30;13.40;99.90
9808;DHT22;4943;52.550;13.462;2023-04-01T07:21:04;13.40;99.90
9808;DHT22;4943;52.550;13.462;2023-04-01T07:23:40;13.40;99.90
9808;DHT22;4943;52.550;13.462;2023-04-01T07:26:15;13.40;99.90
9808;DHT22;4943;52.550;13.462;2023-04-01T07:28:44;13.50;99.90
9808;DHT22;4943;52.550;13.462;2023-04-01T07:31:20;13.50;99.90
9808;DHT22;4943;52.550;13.462;2023-04-01T07:33:56;13.50;99.90
9808;DHT22;4943;52.550;13.462;2023-04-01T07:36:33;13.60;99.90
9808;DHT22;4943;52.550;13.462;2023-04-01T07:39:13;13.60;99.90
9808;DHT22;4943;52.550;13.462;2023-04-01T07:41:51;13.60;99.90
9808;DHT22;4943;52.550;13.462;2023-04-01T07:44:26;13.60;99.90
9808;DHT22;4943;52.550;13.462;2023-04-01T07:47:12;13.70;99.90
9808;DHT22;4943;52.550;13.462;2023-04-01T07:49:51;13.70;99.90
9808;DHT22;4943;52.550;13.462;2023-04-01T07:52:23;13.60;99.90
9808;DHT22;4943;52.550;13.462;2023-04-01T07:54:57;13.50;99.90
9808;DHT22;4943;52.550;13.462;2023-04-01T07:57:32;13.40;99.90
9808;DHT22;4943;52.550;13.462;2023-04-01T08:00:08;13.30;99.90
9808;DHT22;4943;52.550;13.462;2023-04-01T08:02:50;13.20;99.90
9808;DHT22;4943;52.550;13.462;2023-04-01T08:05:25;13.20;99.90
9808;DHT22;4943;52.550;13.462;2023-04-01T08:08:01;13.30;99.90
9808;DHT22;4943;52.550;13.462;2023-04-01T08:10:37;13.30;99.90
9808;DHT22;4943;52.550;13.462;2023-04-01T08:13:14;13.30;99.90
9808;DHT22;4943;52.550;13.462;2023-04-01T08:15:51;13.30;99.90
9808;DHT22;4943;52.550;13.462;2023-04-01T08:18:27;13.40;99.90
9808;DHT22;4943;52.550;13.462;2023-04-01T08:21:01;13.30;99.90
9808;DHT22;4943;52.550;13.462;2023-04-01T08:23:31;13.20;99.90
9808;DHT22;4943;52.550;13.462;2023-04-01T08:26:05;13.10;99.90
9808;DHT22;4943;52.550;13.462;2023-04-01T08:28:37;13.10;99.90
9808;DHT22;4943;52.550;13.462;2023-04-01T08:31:10;13.10;99.90
9808;DHT22;4943;52.550;13.462;2023-04-01T08:33:41;13.10;99.90
9808;DHT22;4943;52.550;13.462;2023-04-01T08:36:12;13.00;99.90
9808;DHT22;4943;52.550;13.462;2023-04-01T08:38:44;12.90;99.90
9808;DHT22;4943;52.550;13.462;2023-04-01T08:44:21;12.90;99.90
9808;DHT22;4943;52.550;13.462;2023-04-01T08:50:21;12.80;99.90
9808;DHT22;4943;52.550;13.462;2023-04-01T08:52:58;12.80;99.90
9808;DHT22;4943;52.550;13.462;2023-04-01T08:55:35;12.70;99.90
9808;DHT22;4943;52.550;13.462;2023-04-01T09:01:13;12.90;99.90
9808;DHT22;4943;52.550;13.462;2023-04-01T09:03:54;12.90;99.90
9808;DHT22;4943;52.550;13.462;2023-04-01T09:06:37;12.90;99.90
9808;DHT22;4943;52.550;13.462;2023-04-01T09:09:27;12.90;99.90
9808;DHT22;4943;52.550;13.462;2023-04-01T09:12:11;12.90;99.90
9808;DHT22;4943;52.550;13.462;2023-04-01T09:15:04;13.00;99.90
9808;DHT22;4943;52.550;13.462;2023-04-01T09:17:55;13.00;99.90
9808;DHT22;4943;52.550;13.462;2023-04-01T09:20:42;13.00;99.90
9808;DHT22;4943;52.550;13.462;2023-04-01T09:23:27;13.00;99.90
9808;DHT22;4943;52.550;13.462;2023-04-01T09:26:24;13.00;99.90
9808;DHT22;4943;52.550;13.462;2023-04-01T09:29:01;13.00;99.90
9808;DHT22;4943;52.550;13.462;2023-04-01T09:31:48;13.10;99.90
9808;DHT22;4943;52.550;13.462;2023-04-01T09:34:36;13.10;99.90
9808;DHT22;4943;52.550;13.462;2023-04-01T09:37:18;13.10;99.90
9808;DHT22;4943;52.550;13.462;2023-04-01T09:40:16;13.00;99.90
9808;DHT22;4943;52.550;13.462;2023-04-01T09:42:56;13.00;99.90
9808;DHT22;4943;52.550;13.462;2023-04-01T09:45:37;13.00;99.90
9808;DHT22;4943;52.550;13.462;2023-04-01T09:48:22;13.00;99.90
9808;DHT22;4943;52.550;13.462;2023-04-01T09:51:00;13.00;99.90
9808;DHT22;4943;52.550;13.462;2023-04-01T09:53:41;13.00;99.90
9808;DHT22;4943;52.550;13.462;2023-04-01T09:56:33;13.00;99.90
9808;DHT22;4943;52.550;13.462;2023-04-01T09:59:30;12.90;99.90
9808;DHT22;4943;52.550;13.462;2023-04-01T10:02:27;12.90;99.90
9808;DHT22;4943;52.550;13.462;2023-04-01T10:05:22;12.80;99.90
9808;DHT22;4943;52.550;13.462;2023-04-01T10:08:24;12.80;99.90
9808;DHT22;4943;52.550;13.462;2023-04-01T10:11:30;12.80;99.90
9808;DHT22;4943;52.550;13.462;2023-04-01T10:14:20;12.80;99.90
9808;DHT22;4943;52.550;13.462;2023-04-01T10:17:15;12.70;99.90
9808;DHT22;4943;52.550;13.462;2023-04-01T10:20:04;12.80;99.90
9808;DHT22;4943;52.550;13.462;2023-04-01T10:22:57;12.70;99.90
9808;DHT22;4943;52.550;13.462;2023-04-01T10:25:47;12.80;99.90
9808;DHT22;4943;52.550;13.462;2023-04-01T10:28:38;12.80;99.90
9808;DHT22;4943;52.550;13.462;2023-04-01T10:34:37;12.80;99.90
9808;DHT22;4943;52.550;13.462;2023-04-01T10:37:23;12.70;99.90
9808;DHT22;4943;52.550;13.462;2023-04-01T10:40:35;12.70;99.90
9808;DHT22;4943;52.550;13.462;2023-04-01T10:43:38;12.70;99.90
9808;DHT22;4943;52.550;13.462;2023-04-01T10:46:32;12.60;99.90
9808;DHT22;4943;52.550;13.462;2023-04-01T10:49:28;12.60;99.90
9808;DHT22;4943;52.550;13.462;2023-04-01T10:52:31;12.60;99.90
9808;DHT22;4943;52.550;13.462;2023-04-01T11:11:05;12.50;99.90
9808;DHT22;4943;52.550;13.462;2023-04-01T11:14:05;12.50;99.90
9808;DHT22;4943;52.550;13.462;2023-04-01T11:16:53;12.60;99.90
9808;DHT22;4943;52.550;13.462;2023-04-01T11:19:45;12.70;99.90
9808;DHT22;4943;52.550;13.462;2023-04-01T11:22:29;12.70;99.90
9808;DHT22;4943;52.550;13.462;2023-04-01T11:25:20;12.80;99.90
9808;DHT22;4943;52.550;13.462;2023-04-01T11:28:13;12.90;99.90
9808;DHT22;4943;52.550;13.462;2023-04-01T11:31:04;13.00;99.90
9808;DHT22;4943;52.550;13.462;2023-04-01T11:33:43;12.90;99.90
9808;DHT22;4943;52.550;13.462;2023-04-01T11:36:23;12.80;99.90
9808;DHT22;4943;52.550;13.462;2023-04-01T11:39:11;12.80;99.90
9808;DHT22;4943;52.550;13.462;2023-04-01T11:41:46;12.80;99.90
9808;DHT22;4943;52.550;13.462;2023-04-01T11:44:18;12.80;99.90
9808;DHT22;4943;52.550;13.462;2023-04-01T11:46:59;12.70;99.90
9808;DHT22;4943;52.550;13.462;2023-04-01T11:49:40;12.70;99.90
9808;DHT22;4943;52.550;13.462;2023-04-01T11:52:32;12.70;99.90
9808;DHT22;4943;52.550;13.462;2023-04-01T11:55:28;12.70;99.90
9808;DHT22;4943;52.550;13.462;2023-04-01T12:01:22;12.60;99.90
9808;DHT22;4943;52.550;13.462;2023-04-01T12:07:30;12.60;99.90
9808;DHT22;4943;52.550;13.462;2023-04-01T12:10:12;12.60;99.90
9808;DHT22;4943;52.550;13.462;2023-04-01T12:12:48;12.50;99.90
9808;DHT22;4943;52.550;13.462;2023-04-01T12:15:34;12.50;99.90
9808;DHT22;4943;52.550;13.462;2023-04-01T12:18:12;12.40;99.90
9808;DHT22;4943;52.550;13.462;2023-04-01T12:20:49;12.40;99.90
9808;DHT22;4943;52.550;13.462;2023-04-01T12:23:35;12.30;99.90
9808;DHT22;4943;52.550;13.462;2023-04-01T12:26:30;12.30;99.90
9808;DHT22;4943;52.550;13.462;2023-04-01T12:29:23;12.30;99.90
9808;DHT22;4943;52.550;13.462;2023-04-01T12:32:02;12.30;99.90
9808;DHT22;4943;52.550;13.462;2023-04-01T12:34:53;12.30;99.90
9808;DHT22;4943;52.550;13.462;2023-04-01T12:37:33;12.30;99.90
9808;DHT22;4943;52.550;13.462;2023-04-01T12:40:37;12.30;99.90
9808;DHT22;4943;52.550;13.462;2023-04-01T12:43:34;12.30;99.90
9808;DHT22;4943;52.550;13.462;2023-04-01T12:46:17;12.30;99.90
9808;DHT22;4943;52.550;13.462;2023-04-01T12:49:23;12.30;99.90
9808;DHT22;4943;52.550;13.462;2023-04-01T12:52:07;12.30;99.90
9808;DHT22;4943;52.550;13.462;2023-04-01T12:54:59;12.30;99.90
9808;DHT22;4943;52.550;13.462;2023-04-01T12:57:57;12.20;99.90
9808;DHT22;4943;52.550;13.462;2023-04-01T13:00:43;12.10;99.90
9808;DHT22;4943;52.550;13.462;2023-04-01T13:06:36;12.10;99.90
9808;DHT22;4943;52.550;13.462;2023-04-01T13:09:20;12.00;99.90
9808;DHT22;4943;52.550;13.462;2023-04-01T13:12:07;12.00;99.90
9808;DHT22;4943;52.550;13.462;2023-04-01T13:15:03;12.00;99.90
9808;DHT22;4943;52.550;13.462;2023-04-01T13:17:36;12.00;99.90
9808;DHT22;4943;52.550;13.462;2023-04-01T13:20:15;12.00;99.90
9808;DHT22;4943;52.550;13.462;2023-04-01T13:22:53;12.00;99.90
9808;DHT22;4943;52.550;13.462;2023-04-01T13:25:33;12.10;99.90
9808;DHT22;4943;52.550;13.462;2023-04-01T13:28:11;12.00;99.90
9808;DHT22;4943;52.550;13.462;2023-04-01T13:30:49;11.90;99.90
9808;DHT22;4943;52.550;13.462;2023-04-01T13:33:27;11.90;99.90
9808;DHT22;4943;52.550;13.462;2023-04-01T13:36:10;11.80;99.90
9808;DHT22;4943;52.550;13.462;2023-04-01T13:41:58;11.80;99.90
9808;DHT22;4943;52.550;13.462;2023-04-01T13:44:35;11.70;99.90
9808;DHT22;4943;52.550;13.462;2023-04-01T13:47:43;11.60;99.90
9808;DHT22;4943;52.550;13.462;2023-04-01T13:50:30;11.60;99.90
9808;DHT22;4943;52.550;13.462;2023-04-01T13:53:13;11.60;99.90
9808;DHT22;4943;52.550;13.462;2023-04-01T13:55:54;11.50;99.90
9808;DHT22;4943;52.550;13.462;2023-04-01T13:58:51;11.50;99.90
9808;DHT22;4943;52.550;13.462;2023-04-01T14:01:30;11.50;99.90
9808;DHT22;4943;52.550;13.462;2023-04-01T14:04:16;11.50;99.90
9808;DHT22;4943;52.550;13.462;2023-04-01T14:07:00;11.40;99.90
9808;DHT22;4943;52.550;13.462;2023-04-01T14:09:45;11.30;99.90
9808;DHT22;4943;52.550;13.462;2023-04-01T14:12:26;11.30;99.90
9808;DHT22;4943;52.550;13.462;2023-04-01T14:15:16;11.30;99.90
9808;DHT22;4943;52.550;13.462;2023-04-01T14:17:56;11.40;99.90
9808;DHT22;4943;52.550;13.462;2023-04-01T14:20:34;11.30;99.90
9808;DHT22;4943;52.550;13.462;2023-04-01T14:23:25;11.30;99.90
9808;DHT22;4943;52.550;13.462;2023-04-01T14:29:22;11.20;99.90
9808;DHT22;4943;52.550;13.462;2023-04-01T14:32:02;11.20;99.90
9808;DHT22;4943;52.550;13.462;2023-04-01T14:34:50;11.10;99.90
9808;DHT22;4943;52.550;13.462;2023-04-01T14:37:55;11.10;99.90
9808;DHT22;4943;52.550;13.462;2023-04-01T14:40:37;11.10;99.90
9808;DHT22;4943;52.550;13.462;2023-04-01T14:46:27;11.10;99.90
9808;DHT22;4943;52.550;13.462;2023-04-01T14:49:02;11.00;99.90
9808;DHT22;4943;52.550;13.462;2023-04-01T14:51:34;11.00;99.90
9808;DHT22;4943;52.550;13.462;2023-04-01T14:54:12;11.00;99.90
9808;DHT22;4943;52.550;13.462;2023-04-01T14:56:46;11.00;99.90
9808;DHT22;4943;52.550;13.462;2023-04-01T14:59:25;10.90;99.90
9808;DHT22;4943;52.550;13.462;2023-04-01T15:01:59;10.90;99.90
9808;DHT22;4943;52.550;13.462;2023-04-01T15:04:53;10.90;99.90
9808;DHT22;4943;52.550;13.462;2023-04-01T15:07:59;10.80;99.90
9808;DHT22;4943;52.550;13.462;2023-04-01T15:11:00;10.90;99.90
9808;DHT22;4943;52.550;13.462;2023-04-01T15:14:12;10.90;99.90
9808;DHT22;4943;52.550;13.462;2023-04-01T15:16:55;10.90;99.90
9808;DHT22;4943;52.550;13.462;2023-04-01T15:19:31;10.90;99.90
9808;DHT22;4943;52.550;13.462;2023-04-01T15:22:35;10.90;99.90
9808;DHT22;4943;52.550;13.462;2023-04-01T15:25:21;10.80;99.90
9808;DHT22;4943;52.550;13.462;2023-04-01T15:27:56;10.80;99.90
9808;DHT22;4943;52.550;13.462;2023-04-01T15:30:32;10.70;99.90
9808;DHT22;4943;52.550;13.462;2023-04-01T15:33:10;10.70;99.90
9808;DHT22;4943;52.550;13.462;2023-04-01T15:35:46;10.60;99.90
9808;DHT22;4943;52.550;13.462;2023-04-01T15:38:24;10.60;99.90
9808;DHT22;4943;52.550;13.462;2023-04-01T15:41:01;10.60;99.90
9808;DHT22;4943;52.550;13.462;2023-04-01T15:43:40;10.60;99.90
9808;DHT22;4943;52.550;13.462;2023-04-01T15:46:41;10.60;99.90
9808;DHT22;4943;52.550;13.462;2023-04-01T15:49:20;10.60;99.90
9808;DHT22;4943;52.550;13.462;2023-04-01T15:52:06;10.60;99.90
9808;DHT22;4943;52.550;13.462;2023-04-01T15:54:59;10.50;99.90
9808;DHT22;4943;52.550;13.462;2023-04-01T15:57:33;10.40;99.90
9808;DHT22;4943;52.550;13.462;2023-04-01T16:00:21;10.30;99.90
9808;DHT22;4943;52.550;13.462;2023-04-01T16:03:07;10.30;99.90
9808;DHT22;4943;52.550;13.462;2023-04-01T16:05:42;10.20;99.90
9808;DHT22;4943;52.550;13.462;2023-04-01T16:11:18;10.10;99.90
9808;DHT22;4943;52.550;13.462;2023-04-01T16:13:59;10.10;99.90
9808;DHT22;4943;52.550;13.462;2023-04-01T16:16:50;10.10;99.90
9808;DHT22;4943;52.550;13.462;2023-04-01T16:19:39;10.10;99.90
9808;DHT22;4943;52.550;13.462;2023-04-01T16:22:14;10.00;99.90
9808;DHT22;4943;52.550;13.462;2023-04-01T16:24:48;10.00;99.90
9808;DHT22;4943;52.550;13.462;2023-04-01T16:27:25;10.00;99.90
9808;DHT22;4943;52.550;13.462;2023-04-01T16:29:59;9.90;99.90
9808;DHT22;4943;52.550;13.462;2023-04-01T16:32:36;9.90;99.90
9808;DHT22;4943;52.550;13.462;2023-04-01T16:35:22;9.80;99.90
9808;DHT22;4943;52.550;13.462;2023-04-01T16:37:53;9.80;99.90
9808;DHT22;4943;52.550;13.462;2023-04-01T16:40:32;9.80;99.90
9808;DHT22;4943;52.550;13.462;2023-04-01T16:43:12;9.80;99.90
9808;DHT22;4943;52.550;13.462;2023-04-01T16:45:45;9.70;99.90
9808;DHT22;4943;52.550;13.462;2023-04-01T16:48:21;9.70;99.90
9808;DHT22;4943;52.550;13.462;2023-04-01T16:50:55;9.70;99.90
9808;DHT22;4943;52.550;13.462;2023-04-01T16:53:36;9.70;99.90
9808;DHT22;4943;52.550;13.462;2023-04-01T16:56:11;9.70;99.90
9808;DHT22;4943;52.550;13.462;2023-04-01T16:58:43;9.60;99.90
9808;DHT22;4943;52.550;13.462;2023-04-01T17:01:19;9.60;99.90
9808;DHT22;4943;52.550;13.462;2023-04-01T17:03:57;9.50;99.90
9808;DHT22;4943;52.550;13.462;2023-04-01T17:06:33;9.40;99.90
9808;DHT22;4943;52.550;13.462;2023-04-01T17:09:18;9.40;99.90
9808;DHT22;4943;52.550;13.462;2023-04-01T17:11:55;9.40;99.90
9808;DHT22;4943;52.550;13.462;2023-04-01T17:14:28;9.40;99.90
9808;DHT22;4943;52.550;13.462;2023-04-01T17:17:31;9.30;99.90
9808;DHT22;4943;52.550;13.462;2023-04-01T17:20:25;9.20;99.90
9808;DHT22;4943;52.550;13.462;2023-04-01T17:23:00;9.20;99.90
9808;DHT22;4943;52.550;13.462;2023-04-01T17:25:39;9.10;99.90
9808;DHT22;4943;52.550;13.462;2023-04-01T17:28:24;9.10;99.90
9808;DHT22;4943;52.550;13.462;2023-04-01T17:31:00;9.10;99.90
9808;DHT22;4943;52.550;13.462;2023-04-01T17:33:50;9.00;99.90
9808;DHT22;4943;52.550;13.462;2023-04-01T17:36:33;9.00;99.90
9808;DHT22;4943;52.550;13.462;2023-04-01T17:39:27;8.90;99.90
9808;DHT22;4943;52.550;13.462;2023-04-01T17:42:05;8.80;99.90
9808;DHT22;4943;52.550;13.462;2023-04-01T17:44:45;8.80;99.90
9808;DHT22;4943;52.550;13.462;2023-04-01T17:47:31;8.80;99.90
9808;DHT22;4943;52.550;13.462;2023-04-01T17:50:19;8.70;99.90
9808;DHT22;4943;52.550;13.462;2023-04-01T17:55:55;8.70;99.90